<?xml version="1.0" encoding="UTF-8" standalone="no" ?>
<gpx xmlns="http://www.topografix.com/GPX/1/1" xmlns:xsi="http://www.w3.org/2001/XMLSchema-instance" xsi:schemaLocation="http://www.topografix.com/GPX/1/1 http://www.topografix.com/GPX/1/1/gpx.xsd" version="1.1" creator="VisuGPX - https://www.visugpx.com">
  <metadata>
    <name>13891754-st mars st mars rs</name>
  </metadata>
  <trk>
    <name><![CDATA[13891754-st mars st mars rs]]></name>
    <trkseg>
      <trkpt lat="46.86263" lon="-0.9255">
        <ele>141</ele>
        <time>2021-11-09T17:26:53Z</time>
      </trkpt>
      <trkpt lat="46.86302" lon="-0.92578">
        <ele>140</ele>
        <time>2021-11-09T17:27:28Z</time>
      </trkpt>
      <trkpt lat="46.86315" lon="-0.92574">
        <ele>139</ele>
        <time>2021-11-09T17:27:38Z</time>
      </trkpt>
      <trkpt lat="46.86332" lon="-0.92533">
        <ele>139</ele>
        <time>2021-11-09T17:28:05Z</time>
      </trkpt>
      <trkpt lat="46.86355" lon="-0.92524">
        <ele>138</ele>
        <time>2021-11-09T17:28:24Z</time>
      </trkpt>
      <trkpt lat="46.86383" lon="-0.92492">
        <ele>137</ele>
        <time>2021-11-09T17:28:52Z</time>
      </trkpt>
      <trkpt lat="46.86443" lon="-0.92494">
        <ele>134</ele>
        <time>2021-11-09T17:29:40Z</time>
      </trkpt>
      <trkpt lat="46.86505" lon="-0.92512">
        <ele>132</ele>
        <time>2021-11-09T17:30:31Z</time>
      </trkpt>
      <trkpt lat="46.86566" lon="-0.92516">
        <ele>131</ele>
        <time>2021-11-09T17:31:20Z</time>
      </trkpt>
      <trkpt lat="46.86621" lon="-0.92522">
        <ele>130</ele>
        <time>2021-11-09T17:32:04Z</time>
      </trkpt>
      <trkpt lat="46.86651" lon="-0.92484">
        <ele>131</ele>
        <time>2021-11-09T17:32:36Z</time>
      </trkpt>
      <trkpt lat="46.86663" lon="-0.92451">
        <ele>132</ele>
        <time>2021-11-09T17:32:56Z</time>
      </trkpt>
      <trkpt lat="46.86659" lon="-0.92415">
        <ele>132</ele>
        <time>2021-11-09T17:33:16Z</time>
      </trkpt>
      <trkpt lat="46.86656" lon="-0.92374">
        <ele>133</ele>
        <time>2021-11-09T17:33:39Z</time>
      </trkpt>
      <trkpt lat="46.86656" lon="-0.92301">
        <ele>136</ele>
        <time>2021-11-09T17:34:19Z</time>
      </trkpt>
      <trkpt lat="46.86654" lon="-0.92258">
        <ele>137</ele>
        <time>2021-11-09T17:34:42Z</time>
      </trkpt>
      <trkpt lat="46.86651" lon="-0.92188">
        <ele>140</ele>
        <time>2021-11-09T17:35:21Z</time>
      </trkpt>
      <trkpt lat="46.86651" lon="-0.92136">
        <ele>142</ele>
        <time>2021-11-09T17:35:49Z</time>
      </trkpt>
      <trkpt lat="46.86653" lon="-0.92104">
        <ele>142</ele>
        <time>2021-11-09T17:36:07Z</time>
      </trkpt>
      <trkpt lat="46.86643" lon="-0.92065">
        <ele>144</ele>
        <time>2021-11-09T17:36:29Z</time>
      </trkpt>
      <trkpt lat="46.86638" lon="-0.92033">
        <ele>145</ele>
        <time>2021-11-09T17:36:47Z</time>
      </trkpt>
      <trkpt lat="46.86641" lon="-0.91977">
        <ele>145</ele>
        <time>2021-11-09T17:37:18Z</time>
      </trkpt>
      <trkpt lat="46.86646" lon="-0.91949">
        <ele>146</ele>
        <time>2021-11-09T17:37:34Z</time>
      </trkpt>
      <trkpt lat="46.86627" lon="-0.91898">
        <ele>147</ele>
        <time>2021-11-09T17:38:06Z</time>
      </trkpt>
      <trkpt lat="46.86609" lon="-0.91864">
        <ele>148</ele>
        <time>2021-11-09T17:38:29Z</time>
      </trkpt>
      <trkpt lat="46.866" lon="-0.91829">
        <ele>149</ele>
        <time>2021-11-09T17:38:50Z</time>
      </trkpt>
      <trkpt lat="46.86599" lon="-0.91763">
        <ele>150</ele>
        <time>2021-11-09T17:39:26Z</time>
      </trkpt>
      <trkpt lat="46.86591" lon="-0.91709">
        <ele>151</ele>
        <time>2021-11-09T17:39:56Z</time>
      </trkpt>
      <trkpt lat="46.8658" lon="-0.91645">
        <ele>153</ele>
        <time>2021-11-09T17:40:32Z</time>
      </trkpt>
      <trkpt lat="46.8656" lon="-0.91582">
        <ele>155</ele>
        <time>2021-11-09T17:41:10Z</time>
      </trkpt>
      <trkpt lat="46.86534" lon="-0.91507">
        <ele>160</ele>
        <time>2021-11-09T17:41:56Z</time>
      </trkpt>
      <trkpt lat="46.86512" lon="-0.91449">
        <ele>165</ele>
        <time>2021-11-09T17:42:33Z</time>
      </trkpt>
      <trkpt lat="46.86521" lon="-0.91374">
        <ele>170</ele>
        <time>2021-11-09T17:43:14Z</time>
      </trkpt>
      <trkpt lat="46.86534" lon="-0.91312">
        <ele>173</ele>
        <time>2021-11-09T17:43:50Z</time>
      </trkpt>
      <trkpt lat="46.8653" lon="-0.91246">
        <ele>177</ele>
        <time>2021-11-09T17:44:26Z</time>
      </trkpt>
      <trkpt lat="46.86524" lon="-0.91213">
        <ele>179</ele>
        <time>2021-11-09T17:44:45Z</time>
      </trkpt>
      <trkpt lat="46.86524" lon="-0.91188">
        <ele>180</ele>
        <time>2021-11-09T17:44:59Z</time>
      </trkpt>
      <trkpt lat="46.86528" lon="-0.9113">
        <ele>182</ele>
        <time>2021-11-09T17:45:30Z</time>
      </trkpt>
      <trkpt lat="46.86534" lon="-0.91089">
        <ele>183</ele>
        <time>2021-11-09T17:45:53Z</time>
      </trkpt>
      <trkpt lat="46.86534" lon="-0.91048">
        <ele>184</ele>
        <time>2021-11-09T17:46:16Z</time>
      </trkpt>
      <trkpt lat="46.86536" lon="-0.91001">
        <ele>185</ele>
        <time>2021-11-09T17:46:42Z</time>
      </trkpt>
      <trkpt lat="46.86534" lon="-0.90962">
        <ele>185</ele>
        <time>2021-11-09T17:47:03Z</time>
      </trkpt>
      <trkpt lat="46.86525" lon="-0.90917">
        <ele>186</ele>
        <time>2021-11-09T17:47:29Z</time>
      </trkpt>
      <trkpt lat="46.86514" lon="-0.90864">
        <ele>187</ele>
        <time>2021-11-09T17:47:59Z</time>
      </trkpt>
      <trkpt lat="46.86502" lon="-0.90823">
        <ele>188</ele>
        <time>2021-11-09T17:48:23Z</time>
      </trkpt>
      <trkpt lat="46.86494" lon="-0.90784">
        <ele>188</ele>
        <time>2021-11-09T17:48:46Z</time>
      </trkpt>
      <trkpt lat="46.8649" lon="-0.90746">
        <ele>188</ele>
        <time>2021-11-09T17:49:07Z</time>
      </trkpt>
      <trkpt lat="46.86474" lon="-0.90694">
        <ele>188</ele>
        <time>2021-11-09T17:49:38Z</time>
      </trkpt>
      <trkpt lat="46.86525" lon="-0.9057">
        <ele>191</ele>
        <time>2021-11-09T17:50:57Z</time>
      </trkpt>
      <trkpt lat="46.8656" lon="-0.90492">
        <ele>193</ele>
        <time>2021-11-09T17:51:48Z</time>
      </trkpt>
      <trkpt lat="46.86587" lon="-0.90424">
        <ele>193</ele>
        <time>2021-11-09T17:52:31Z</time>
      </trkpt>
      <trkpt lat="46.8661" lon="-0.90353">
        <ele>195</ele>
        <time>2021-11-09T17:53:14Z</time>
      </trkpt>
      <trkpt lat="46.86635" lon="-0.90299">
        <ele>195</ele>
        <time>2021-11-09T17:53:50Z</time>
      </trkpt>
      <trkpt lat="46.86651" lon="-0.90237">
        <ele>196</ele>
        <time>2021-11-09T17:54:26Z</time>
      </trkpt>
      <trkpt lat="46.86662" lon="-0.9019">
        <ele>196</ele>
        <time>2021-11-09T17:54:54Z</time>
      </trkpt>
      <trkpt lat="46.86666" lon="-0.90106">
        <ele>195</ele>
        <time>2021-11-09T17:55:40Z</time>
      </trkpt>
      <trkpt lat="46.86671" lon="-0.90048">
        <ele>195</ele>
        <time>2021-11-09T17:56:12Z</time>
      </trkpt>
      <trkpt lat="46.86675" lon="-0.89962">
        <ele>194</ele>
        <time>2021-11-09T17:56:59Z</time>
      </trkpt>
      <trkpt lat="46.86682" lon="-0.89904">
        <ele>195</ele>
        <time>2021-11-09T17:57:31Z</time>
      </trkpt>
      <trkpt lat="46.86629" lon="-0.89889">
        <ele>193</ele>
        <time>2021-11-09T17:58:14Z</time>
      </trkpt>
      <trkpt lat="46.86597" lon="-0.89868">
        <ele>192</ele>
        <time>2021-11-09T17:58:42Z</time>
      </trkpt>
      <trkpt lat="46.86565" lon="-0.89864">
        <ele>192</ele>
        <time>2021-11-09T17:59:08Z</time>
      </trkpt>
      <trkpt lat="46.86497" lon="-0.89846">
        <ele>192</ele>
        <time>2021-11-09T18:00:03Z</time>
      </trkpt>
      <trkpt lat="46.86459" lon="-0.89836">
        <ele>193</ele>
        <time>2021-11-09T18:00:34Z</time>
      </trkpt>
      <trkpt lat="46.86395" lon="-0.89816">
        <ele>195</ele>
        <time>2021-11-09T18:01:27Z</time>
      </trkpt>
      <trkpt lat="46.86352" lon="-0.89814">
        <ele>196</ele>
        <time>2021-11-09T18:02:01Z</time>
      </trkpt>
      <trkpt lat="46.8633" lon="-0.89799">
        <ele>198</ele>
        <time>2021-11-09T18:02:21Z</time>
      </trkpt>
      <trkpt lat="46.86296" lon="-0.8978">
        <ele>203</ele>
        <time>2021-11-09T18:02:50Z</time>
      </trkpt>
      <trkpt lat="46.86269" lon="-0.89759">
        <ele>208</ele>
        <time>2021-11-09T18:03:14Z</time>
      </trkpt>
      <trkpt lat="46.86247" lon="-0.89754">
        <ele>211</ele>
        <time>2021-11-09T18:03:32Z</time>
      </trkpt>
      <trkpt lat="46.86225" lon="-0.89778">
        <ele>212</ele>
        <time>2021-11-09T18:03:54Z</time>
      </trkpt>
      <trkpt lat="46.86208" lon="-0.89786">
        <ele>215</ele>
        <time>2021-11-09T18:04:08Z</time>
      </trkpt>
      <trkpt lat="46.8622" lon="-0.89819">
        <ele>212</ele>
        <time>2021-11-09T18:04:29Z</time>
      </trkpt>
      <trkpt lat="46.86241" lon="-0.89851">
        <ele>207</ele>
        <time>2021-11-09T18:04:53Z</time>
      </trkpt>
      <trkpt lat="46.86244" lon="-0.89879">
        <ele>206</ele>
        <time>2021-11-09T18:05:09Z</time>
      </trkpt>
      <trkpt lat="46.86244" lon="-0.89922">
        <ele>205</ele>
        <time>2021-11-09T18:05:32Z</time>
      </trkpt>
      <trkpt lat="46.86247" lon="-0.89995">
        <ele>204</ele>
        <time>2021-11-09T18:06:12Z</time>
      </trkpt>
      <trkpt lat="46.86249" lon="-0.90029">
        <ele>203</ele>
        <time>2021-11-09T18:06:31Z</time>
      </trkpt>
      <trkpt lat="46.86249" lon="-0.90093">
        <ele>202</ele>
        <time>2021-11-09T18:07:06Z</time>
      </trkpt>
      <trkpt lat="46.86242" lon="-0.90143">
        <ele>202</ele>
        <time>2021-11-09T18:07:34Z</time>
      </trkpt>
      <trkpt lat="46.86232" lon="-0.90188">
        <ele>203</ele>
        <time>2021-11-09T18:08:00Z</time>
      </trkpt>
      <trkpt lat="46.8622" lon="-0.90216">
        <ele>206</ele>
        <time>2021-11-09T18:08:18Z</time>
      </trkpt>
      <trkpt lat="46.86213" lon="-0.90289">
        <ele>204</ele>
        <time>2021-11-09T18:08:58Z</time>
      </trkpt>
      <trkpt lat="46.86197" lon="-0.90327">
        <ele>203</ele>
        <time>2021-11-09T18:09:23Z</time>
      </trkpt>
      <trkpt lat="46.8618" lon="-0.90374">
        <ele>199</ele>
        <time>2021-11-09T18:09:52Z</time>
      </trkpt>
      <trkpt lat="46.86167" lon="-0.90376">
        <ele>200</ele>
        <time>2021-11-09T18:10:02Z</time>
      </trkpt>
      <trkpt lat="46.86151" lon="-0.90404">
        <ele>199</ele>
        <time>2021-11-09T18:10:22Z</time>
      </trkpt>
      <trkpt lat="46.86129" lon="-0.90413">
        <ele>201</ele>
        <time>2021-11-09T18:10:40Z</time>
      </trkpt>
      <trkpt lat="46.86104" lon="-0.90449">
        <ele>199</ele>
        <time>2021-11-09T18:11:09Z</time>
      </trkpt>
      <trkpt lat="46.86076" lon="-0.90464">
        <ele>200</ele>
        <time>2021-11-09T18:11:32Z</time>
      </trkpt>
      <trkpt lat="46.86051" lon="-0.90488">
        <ele>199</ele>
        <time>2021-11-09T18:11:56Z</time>
      </trkpt>
      <trkpt lat="46.86034" lon="-0.90507">
        <ele>197</ele>
        <time>2021-11-09T18:12:14Z</time>
      </trkpt>
      <trkpt lat="46.8601" lon="-0.90535">
        <ele>196</ele>
        <time>2021-11-09T18:12:38Z</time>
      </trkpt>
      <trkpt lat="46.85996" lon="-0.9057">
        <ele>193</ele>
        <time>2021-11-09T18:13:00Z</time>
      </trkpt>
      <trkpt lat="46.85984" lon="-0.90595">
        <ele>192</ele>
        <time>2021-11-09T18:13:17Z</time>
      </trkpt>
      <trkpt lat="46.85987" lon="-0.9064">
        <ele>186</ele>
        <time>2021-11-09T18:13:42Z</time>
      </trkpt>
      <trkpt lat="46.85979" lon="-0.90688">
        <ele>183</ele>
        <time>2021-11-09T18:14:09Z</time>
      </trkpt>
      <trkpt lat="46.85968" lon="-0.90722">
        <ele>182</ele>
        <time>2021-11-09T18:14:29Z</time>
      </trkpt>
      <trkpt lat="46.8596" lon="-0.90735">
        <ele>182</ele>
        <time>2021-11-09T18:14:39Z</time>
      </trkpt>
      <trkpt lat="46.85957" lon="-0.90778">
        <ele>182</ele>
        <time>2021-11-09T18:15:03Z</time>
      </trkpt>
      <trkpt lat="46.85947" lon="-0.90831">
        <ele>186</ele>
        <time>2021-11-09T18:15:33Z</time>
      </trkpt>
      <trkpt lat="46.85959" lon="-0.90917">
        <ele>181</ele>
        <time>2021-11-09T18:16:21Z</time>
      </trkpt>
      <trkpt lat="46.85971" lon="-0.90969">
        <ele>179</ele>
        <time>2021-11-09T18:16:51Z</time>
      </trkpt>
      <trkpt lat="46.8599" lon="-0.91018">
        <ele>176</ele>
        <time>2021-11-09T18:17:22Z</time>
      </trkpt>
      <trkpt lat="46.8601" lon="-0.91095">
        <ele>175</ele>
        <time>2021-11-09T18:18:07Z</time>
      </trkpt>
      <trkpt lat="46.8601" lon="-0.91198">
        <ele>170</ele>
        <time>2021-11-09T18:19:03Z</time>
      </trkpt>
      <trkpt lat="46.86003" lon="-0.91241">
        <ele>167</ele>
        <time>2021-11-09T18:19:27Z</time>
      </trkpt>
      <trkpt lat="46.86006" lon="-0.91271">
        <ele>165</ele>
        <time>2021-11-09T18:19:44Z</time>
      </trkpt>
      <trkpt lat="46.85997" lon="-0.91325">
        <ele>163</ele>
        <time>2021-11-09T18:20:14Z</time>
      </trkpt>
      <trkpt lat="46.8599" lon="-0.91344">
        <ele>164</ele>
        <time>2021-11-09T18:20:26Z</time>
      </trkpt>
      <trkpt lat="46.85994" lon="-0.91376">
        <ele>161</ele>
        <time>2021-11-09T18:20:44Z</time>
      </trkpt>
      <trkpt lat="46.86018" lon="-0.914">
        <ele>158</ele>
        <time>2021-11-09T18:21:07Z</time>
      </trkpt>
      <trkpt lat="46.86034" lon="-0.91406">
        <ele>158</ele>
        <time>2021-11-09T18:21:21Z</time>
      </trkpt>
      <trkpt lat="46.8604" lon="-0.91419">
        <ele>157</ele>
        <time>2021-11-09T18:21:29Z</time>
      </trkpt>
      <trkpt lat="46.8604" lon="-0.91441">
        <ele>157</ele>
        <time>2021-11-09T18:21:41Z</time>
      </trkpt>
      <trkpt lat="46.86035" lon="-0.91477">
        <ele>157</ele>
        <time>2021-11-09T18:22:01Z</time>
      </trkpt>
      <trkpt lat="46.86031" lon="-0.91518">
        <ele>156</ele>
        <time>2021-11-09T18:22:24Z</time>
      </trkpt>
      <trkpt lat="46.86035" lon="-0.9154">
        <ele>155</ele>
        <time>2021-11-09T18:22:36Z</time>
      </trkpt>
      <trkpt lat="46.86031" lon="-0.91632">
        <ele>153</ele>
        <time>2021-11-09T18:23:27Z</time>
      </trkpt>
      <trkpt lat="46.86034" lon="-0.91651">
        <ele>153</ele>
        <time>2021-11-09T18:23:38Z</time>
      </trkpt>
      <trkpt lat="46.86034" lon="-0.91694">
        <ele>153</ele>
        <time>2021-11-09T18:24:01Z</time>
      </trkpt>
      <trkpt lat="46.86031" lon="-0.91735">
        <ele>152</ele>
        <time>2021-11-09T18:24:24Z</time>
      </trkpt>
      <trkpt lat="46.86026" lon="-0.91778">
        <ele>152</ele>
        <time>2021-11-09T18:24:48Z</time>
      </trkpt>
      <trkpt lat="46.86018" lon="-0.91795">
        <ele>152</ele>
        <time>2021-11-09T18:24:59Z</time>
      </trkpt>
      <trkpt lat="46.86" lon="-0.91816">
        <ele>151</ele>
        <time>2021-11-09T18:25:17Z</time>
      </trkpt>
      <trkpt lat="46.85982" lon="-0.9184">
        <ele>151</ele>
        <time>2021-11-09T18:25:37Z</time>
      </trkpt>
      <trkpt lat="46.85968" lon="-0.91851">
        <ele>151</ele>
        <time>2021-11-09T18:25:50Z</time>
      </trkpt>
      <trkpt lat="46.85955" lon="-0.91821">
        <ele>152</ele>
        <time>2021-11-09T18:26:09Z</time>
      </trkpt>
      <trkpt lat="46.85931" lon="-0.91784">
        <ele>153</ele>
        <time>2021-11-09T18:26:37Z</time>
      </trkpt>
      <trkpt lat="46.85908" lon="-0.91754">
        <ele>154</ele>
        <time>2021-11-09T18:27:02Z</time>
      </trkpt>
      <trkpt lat="46.85899" lon="-0.91741">
        <ele>155</ele>
        <time>2021-11-09T18:27:12Z</time>
      </trkpt>
      <trkpt lat="46.85887" lon="-0.91791">
        <ele>154</ele>
        <time>2021-11-09T18:27:41Z</time>
      </trkpt>
      <trkpt lat="46.85867" lon="-0.91818">
        <ele>154</ele>
        <time>2021-11-09T18:28:03Z</time>
      </trkpt>
      <trkpt lat="46.85865" lon="-0.91851">
        <ele>152</ele>
        <time>2021-11-09T18:28:21Z</time>
      </trkpt>
      <trkpt lat="46.85861" lon="-0.91881">
        <ele>150</ele>
        <time>2021-11-09T18:28:37Z</time>
      </trkpt>
      <trkpt lat="46.8585" lon="-0.919">
        <ele>149</ele>
        <time>2021-11-09T18:28:51Z</time>
      </trkpt>
      <trkpt lat="46.85828" lon="-0.91926">
        <ele>148</ele>
        <time>2021-11-09T18:29:14Z</time>
      </trkpt>
      <trkpt lat="46.85805" lon="-0.91945">
        <ele>147</ele>
        <time>2021-11-09T18:29:35Z</time>
      </trkpt>
      <trkpt lat="46.85783" lon="-0.91967">
        <ele>146</ele>
        <time>2021-11-09T18:29:56Z</time>
      </trkpt>
      <trkpt lat="46.85748" lon="-0.9199">
        <ele>146</ele>
        <time>2021-11-09T18:30:27Z</time>
      </trkpt>
      <trkpt lat="46.85762" lon="-0.92022">
        <ele>145</ele>
        <time>2021-11-09T18:30:48Z</time>
      </trkpt>
      <trkpt lat="46.8579" lon="-0.9205">
        <ele>144</ele>
        <time>2021-11-09T18:31:15Z</time>
      </trkpt>
      <trkpt lat="46.85806" lon="-0.92072">
        <ele>143</ele>
        <time>2021-11-09T18:31:32Z</time>
      </trkpt>
      <trkpt lat="46.85824" lon="-0.92106">
        <ele>142</ele>
        <time>2021-11-09T18:31:56Z</time>
      </trkpt>
      <trkpt lat="46.85852" lon="-0.92147">
        <ele>141</ele>
        <time>2021-11-09T18:32:28Z</time>
      </trkpt>
      <trkpt lat="46.85867" lon="-0.92183">
        <ele>141</ele>
        <time>2021-11-09T18:32:51Z</time>
      </trkpt>
      <trkpt lat="46.85887" lon="-0.92209">
        <ele>141</ele>
        <time>2021-11-09T18:33:12Z</time>
      </trkpt>
      <trkpt lat="46.85878" lon="-0.92241">
        <ele>141</ele>
        <time>2021-11-09T18:33:31Z</time>
      </trkpt>
      <trkpt lat="46.85871" lon="-0.92291">
        <ele>145</ele>
        <time>2021-11-09T18:33:59Z</time>
      </trkpt>
      <trkpt lat="46.85912" lon="-0.92327">
        <ele>142</ele>
        <time>2021-11-09T18:34:37Z</time>
      </trkpt>
      <trkpt lat="46.85944" lon="-0.92357">
        <ele>142</ele>
        <time>2021-11-09T18:35:08Z</time>
      </trkpt>
      <trkpt lat="46.85922" lon="-0.924">
        <ele>144</ele>
        <time>2021-11-09T18:35:37Z</time>
      </trkpt>
      <trkpt lat="46.85921" lon="-0.92436">
        <ele>145</ele>
        <time>2021-11-09T18:35:57Z</time>
      </trkpt>
      <trkpt lat="46.85912" lon="-0.9249">
        <ele>147</ele>
        <time>2021-11-09T18:36:27Z</time>
      </trkpt>
      <trkpt lat="46.85922" lon="-0.9252">
        <ele>146</ele>
        <time>2021-11-09T18:36:46Z</time>
      </trkpt>
      <trkpt lat="46.85922" lon="-0.92567">
        <ele>146</ele>
        <time>2021-11-09T18:37:11Z</time>
      </trkpt>
      <trkpt lat="46.85922" lon="-0.92608">
        <ele>144</ele>
        <time>2021-11-09T18:37:34Z</time>
      </trkpt>
      <trkpt lat="46.85934" lon="-0.92632">
        <ele>142</ele>
        <time>2021-11-09T18:37:50Z</time>
      </trkpt>
      <trkpt lat="46.85935" lon="-0.92685">
        <ele>139</ele>
        <time>2021-11-09T18:38:19Z</time>
      </trkpt>
      <trkpt lat="46.8595" lon="-0.92713">
        <ele>136</ele>
        <time>2021-11-09T18:38:39Z</time>
      </trkpt>
      <trkpt lat="46.85928" lon="-0.92758">
        <ele>134</ele>
        <time>2021-11-09T18:39:09Z</time>
      </trkpt>
      <trkpt lat="46.85915" lon="-0.92754">
        <ele>135</ele>
        <time>2021-11-09T18:39:20Z</time>
      </trkpt>
      <trkpt lat="46.85912" lon="-0.92767">
        <ele>135</ele>
        <time>2021-11-09T18:39:27Z</time>
      </trkpt>
      <trkpt lat="46.85896" lon="-0.92786">
        <ele>136</ele>
        <time>2021-11-09T18:39:44Z</time>
      </trkpt>
      <trkpt lat="46.85887" lon="-0.92808">
        <ele>136</ele>
        <time>2021-11-09T18:39:58Z</time>
      </trkpt>
      <trkpt lat="46.8588" lon="-0.92855">
        <ele>136</ele>
        <time>2021-11-09T18:40:24Z</time>
      </trkpt>
      <trkpt lat="46.85881" lon="-0.92896">
        <ele>136</ele>
        <time>2021-11-09T18:40:46Z</time>
      </trkpt>
      <trkpt lat="46.85847" lon="-0.92956">
        <ele>138</ele>
        <time>2021-11-09T18:41:29Z</time>
      </trkpt>
      <trkpt lat="46.85809" lon="-0.93052">
        <ele>140</ele>
        <time>2021-11-09T18:42:30Z</time>
      </trkpt>
      <trkpt lat="46.8578" lon="-0.93093">
        <ele>141</ele>
        <time>2021-11-09T18:43:02Z</time>
      </trkpt>
      <trkpt lat="46.85754" lon="-0.9314">
        <ele>143</ele>
        <time>2021-11-09T18:43:35Z</time>
      </trkpt>
      <trkpt lat="46.85736" lon="-0.93202">
        <ele>144</ele>
        <time>2021-11-09T18:44:12Z</time>
      </trkpt>
      <trkpt lat="46.85734" lon="-0.93256">
        <ele>143</ele>
        <time>2021-11-09T18:44:42Z</time>
      </trkpt>
      <trkpt lat="46.85734" lon="-0.93308">
        <ele>142</ele>
        <time>2021-11-09T18:45:10Z</time>
      </trkpt>
      <trkpt lat="46.85723" lon="-0.93351">
        <ele>142</ele>
        <time>2021-11-09T18:45:35Z</time>
      </trkpt>
      <trkpt lat="46.85704" lon="-0.93426">
        <ele>139</ele>
        <time>2021-11-09T18:46:19Z</time>
      </trkpt>
      <trkpt lat="46.85668" lon="-0.93484">
        <ele>138</ele>
        <time>2021-11-09T18:47:02Z</time>
      </trkpt>
      <trkpt lat="46.85655" lon="-0.93505">
        <ele>138</ele>
        <time>2021-11-09T18:47:17Z</time>
      </trkpt>
      <trkpt lat="46.8563" lon="-0.93593">
        <ele>138</ele>
        <time>2021-11-09T18:48:10Z</time>
      </trkpt>
      <trkpt lat="46.85602" lon="-0.93606">
        <ele>139</ele>
        <time>2021-11-09T18:48:33Z</time>
      </trkpt>
      <trkpt lat="46.85575" lon="-0.93644">
        <ele>140</ele>
        <time>2021-11-09T18:49:03Z</time>
      </trkpt>
      <trkpt lat="46.85542" lon="-0.93664">
        <ele>142</ele>
        <time>2021-11-09T18:49:32Z</time>
      </trkpt>
      <trkpt lat="46.85495" lon="-0.93702">
        <ele>145</ele>
        <time>2021-11-09T18:50:15Z</time>
      </trkpt>
      <trkpt lat="46.85462" lon="-0.93743">
        <ele>147</ele>
        <time>2021-11-09T18:50:49Z</time>
      </trkpt>
      <trkpt lat="46.85517" lon="-0.93855">
        <ele>144</ele>
        <time>2021-11-09T18:52:05Z</time>
      </trkpt>
      <trkpt lat="46.85563" lon="-0.93947">
        <ele>141</ele>
        <time>2021-11-09T18:53:07Z</time>
      </trkpt>
      <trkpt lat="46.85599" lon="-0.93994">
        <ele>139</ele>
        <time>2021-11-09T18:53:46Z</time>
      </trkpt>
      <trkpt lat="46.85632" lon="-0.94037">
        <ele>136</ele>
        <time>2021-11-09T18:54:21Z</time>
      </trkpt>
      <trkpt lat="46.85679" lon="-0.94095">
        <ele>133</ele>
        <time>2021-11-09T18:55:11Z</time>
      </trkpt>
      <trkpt lat="46.85707" lon="-0.9402">
        <ele>133</ele>
        <time>2021-11-09T18:55:57Z</time>
      </trkpt>
      <trkpt lat="46.85777" lon="-0.94009">
        <ele>130</ele>
        <time>2021-11-09T18:56:54Z</time>
      </trkpt>
      <trkpt lat="46.85836" lon="-0.93981">
        <ele>128</ele>
        <time>2021-11-09T18:57:43Z</time>
      </trkpt>
      <trkpt lat="46.85846" lon="-0.93936">
        <ele>130</ele>
        <time>2021-11-09T18:58:09Z</time>
      </trkpt>
      <trkpt lat="46.85846" lon="-0.93887">
        <ele>132</ele>
        <time>2021-11-09T18:58:36Z</time>
      </trkpt>
      <trkpt lat="46.85839" lon="-0.93825">
        <ele>135</ele>
        <time>2021-11-09T18:59:11Z</time>
      </trkpt>
      <trkpt lat="46.85803" lon="-0.93707">
        <ele>138</ele>
        <time>2021-11-09T19:00:21Z</time>
      </trkpt>
      <trkpt lat="46.85834" lon="-0.93662">
        <ele>140</ele>
        <time>2021-11-09T19:00:56Z</time>
      </trkpt>
      <trkpt lat="46.859" lon="-0.93617">
        <ele>142</ele>
        <time>2021-11-09T19:01:55Z</time>
      </trkpt>
      <trkpt lat="46.85949" lon="-0.93582">
        <ele>143</ele>
        <time>2021-11-09T19:02:38Z</time>
      </trkpt>
      <trkpt lat="46.85991" lon="-0.93529">
        <ele>143</ele>
        <time>2021-11-09T19:03:23Z</time>
      </trkpt>
      <trkpt lat="46.86044" lon="-0.93458">
        <ele>144</ele>
        <time>2021-11-09T19:04:20Z</time>
      </trkpt>
      <trkpt lat="46.86107" lon="-0.93415">
        <ele>143</ele>
        <time>2021-11-09T19:05:16Z</time>
      </trkpt>
      <trkpt lat="46.86153" lon="-0.93368">
        <ele>142</ele>
        <time>2021-11-09T19:06:01Z</time>
      </trkpt>
      <trkpt lat="46.86188" lon="-0.9331">
        <ele>142</ele>
        <time>2021-11-09T19:06:43Z</time>
      </trkpt>
      <trkpt lat="46.86216" lon="-0.93256">
        <ele>142</ele>
        <time>2021-11-09T19:07:20Z</time>
      </trkpt>
      <trkpt lat="46.86238" lon="-0.93199">
        <ele>141</ele>
        <time>2021-11-09T19:07:56Z</time>
      </trkpt>
      <trkpt lat="46.8626" lon="-0.93213">
        <ele>142</ele>
        <time>2021-11-09T19:08:15Z</time>
      </trkpt>
      <trkpt lat="46.86255" lon="-0.93193">
        <ele>141</ele>
        <time>2021-11-09T19:08:27Z</time>
      </trkpt>
      <trkpt lat="46.86267" lon="-0.93145">
        <ele>139</ele>
        <time>2021-11-09T19:08:55Z</time>
      </trkpt>
      <trkpt lat="46.86247" lon="-0.93117">
        <ele>139</ele>
        <time>2021-11-09T19:09:17Z</time>
      </trkpt>
      <trkpt lat="46.86233" lon="-0.93095">
        <ele>138</ele>
        <time>2021-11-09T19:09:34Z</time>
      </trkpt>
      <trkpt lat="46.86214" lon="-0.93072">
        <ele>137</ele>
        <time>2021-11-09T19:09:53Z</time>
      </trkpt>
      <trkpt lat="46.86201" lon="-0.93048">
        <ele>135</ele>
        <time>2021-11-09T19:10:10Z</time>
      </trkpt>
      <trkpt lat="46.862" lon="-0.93029">
        <ele>134</ele>
        <time>2021-11-09T19:10:21Z</time>
      </trkpt>
      <trkpt lat="46.86192" lon="-0.93005">
        <ele>133</ele>
        <time>2021-11-09T19:10:35Z</time>
      </trkpt>
      <trkpt lat="46.86197" lon="-0.92971">
        <ele>131</ele>
        <time>2021-11-09T19:10:54Z</time>
      </trkpt>
      <trkpt lat="46.86229" lon="-0.92951">
        <ele>130</ele>
        <time>2021-11-09T19:11:22Z</time>
      </trkpt>
      <trkpt lat="46.86233" lon="-0.92913">
        <ele>127</ele>
        <time>2021-11-09T19:11:43Z</time>
      </trkpt>
      <trkpt lat="46.86241" lon="-0.92896">
        <ele>128</ele>
        <time>2021-11-09T19:11:54Z</time>
      </trkpt>
      <trkpt lat="46.86248" lon="-0.92842">
        <ele>129</ele>
        <time>2021-11-09T19:12:24Z</time>
      </trkpt>
      <trkpt lat="46.86247" lon="-0.92797">
        <ele>131</ele>
        <time>2021-11-09T19:12:49Z</time>
      </trkpt>
      <trkpt lat="46.86252" lon="-0.92782">
        <ele>133</ele>
        <time>2021-11-09T19:12:58Z</time>
      </trkpt>
      <trkpt lat="46.86208" lon="-0.92735">
        <ele>133</ele>
        <time>2021-11-09T19:13:42Z</time>
      </trkpt>
      <trkpt lat="46.86169" lon="-0.92705">
        <ele>134</ele>
        <time>2021-11-09T19:14:17Z</time>
      </trkpt>
      <trkpt lat="46.86147" lon="-0.92696">
        <ele>134</ele>
        <time>2021-11-09T19:14:35Z</time>
      </trkpt>
      <trkpt lat="46.86173" lon="-0.92645">
        <ele>138</ele>
        <time>2021-11-09T19:15:10Z</time>
      </trkpt>
      <trkpt lat="46.86216" lon="-0.92606">
        <ele>140</ele>
        <time>2021-11-09T19:15:51Z</time>
      </trkpt>
      <trkpt lat="46.86241" lon="-0.92597">
        <ele>141</ele>
        <time>2021-11-09T19:16:11Z</time>
      </trkpt>
      <trkpt lat="46.86249" lon="-0.92576">
        <ele>141</ele>
        <time>2021-11-09T19:16:25Z</time>
      </trkpt>
      <trkpt lat="46.86271" lon="-0.92552">
        <ele>141</ele>
        <time>2021-11-09T19:16:47Z</time>
      </trkpt>
    </trkseg>
  </trk>
</gpx>